createdAt,value
2019-03-24T00:06:35.923Z,95709.25
2019-03-24T00:09:17.042Z,95706.12
2019-03-24T00:14:38.928Z,95738.03
2019-03-24T00:18:03.948Z,95738.35
2019-03-24T00:20:24.119Z,95718.27
2019-03-24T00:22:57.789Z,95721.33
2019-03-24T00:25:39.058Z,95743.60
2019-03-24T00:28:20.130Z,95713.19
2019-03-24T00:31:01.840Z,95705.81
2019-03-24T00:33:40.642Z,95671.94
2019-03-24T00:36:14.604Z,95681.58
2019-03-24T00:38:49.494Z,95693.02
2019-03-24T00:41:25.913Z,95690.08
2019-03-24T00:44:03.020Z,95690.08
2019-03-24T00:46:44.729Z,95674.88
2019-03-24T00:50:06.768Z,95643.80
2019-03-24T00:53:42.590Z,95645.11
2019-03-24T00:55:21.120Z,95601.47
2019-03-24T00:58:05.094Z,95578.06
2019-03-24T01:01:03.585Z,95557.80
2019-03-24T01:03:36.316Z,95539.18
2019-03-24T01:06:27.922Z,95538.05
2019-03-24T01:09:10.225Z,95500.31
2019-03-24T01:11:49.095Z,95459.61
2019-03-24T01:14:26.465Z,95481.35
2019-03-24T01:17:16.911Z,95467.30
2019-03-24T01:20:24.398Z,95490.66
2019-03-24T01:22:51.377Z,95489.84
2019-03-24T01:26:16.955Z,95487.54
2019-03-24T01:28:36.319Z,95482.79
2019-03-24T01:32:01.359Z,95456.17
2019-03-24T01:34:31.183Z,95422.58
2019-03-24T01:37:12.502Z,95421.58
2019-03-24T01:40:16.990Z,95421.58
2019-03-24T01:42:50.090Z,95438.56
2019-03-24T01:45:35.915Z,95403.47
2019-03-24T01:48:15.727Z,95421.58
2019-03-24T01:51:10.604Z,95377.16
2019-03-24T01:53:30.297Z,95359.23
2019-03-24T01:59:25.743Z,95368.34
2019-03-24T02:02:28.370Z,95348.44
2019-03-24T02:05:10.324Z,95346.81
2019-03-24T02:08:06.461Z,95268.84
2019-03-24T02:10:42.699Z,95295.27
2019-03-24T02:13:29.024Z,95273.39
2019-03-24T02:16:12.215Z,95221.48
2019-03-24T02:18:50.593Z,95174.22
2019-03-24T02:21:57.571Z,95169.64
2019-03-24T02:24:33.357Z,95167.02
2019-03-24T02:27:04.298Z,95201.91
2019-03-24T02:29:39.766Z,95180.27
2019-03-24T02:32:30.823Z,95186.44
2019-03-24T02:35:16.737Z,95170.95
2019-03-24T02:38:07.107Z,95154.30
2019-03-24T02:41:02.866Z,95137.03
2019-03-24T02:43:44.994Z,95144.20
2019-03-24T02:46:24.544Z,95105.73
2019-03-24T02:48:54.666Z,95119.45
2019-03-24T02:51:28.248Z,95122.69
2019-03-24T02:54:03.466Z,95122.69
2019-03-24T02:56:37.728Z,95086.86
2019-03-24T02:59:10.494Z,95091.09
2019-03-24T03:01:45.208Z,95081.31
2019-03-24T03:04:21.565Z,95081.81
2019-03-24T03:06:53.698Z,95063.05
2019-03-24T03:09:27.269Z,95076.27
2019-03-24T03:11:58.299Z,95098.88
2019-03-24T03:14:33.965Z,95054.55
2019-03-24T03:17:05.345Z,95054.23
2019-03-24T03:19:40.448Z,95118.64
2019-03-24T03:22:13.671Z,95117.14
2019-03-24T03:24:44.609Z,95084.23
2019-03-24T03:33:44.658Z,95040.52
2019-03-24T03:36:18.483Z,95047.37
2019-03-24T03:38:56.613Z,95043.95
2019-03-24T03:41:28.722Z,95047.06
2019-03-24T03:44:01.350Z,95011.87
2019-03-24T03:46:33.798Z,94975.74
2019-03-24T03:49:04.776Z,94994.00
2019-03-24T03:51:35.773Z,95020.03
2019-03-24T03:54:06.833Z,94991.14
2019-03-24T03:56:37.833Z,95021.65
2019-03-24T03:59:10.493Z,95021.65
2019-03-24T04:01:43.872Z,95070.22
2019-03-24T04:04:14.842Z,95076.77
2019-03-24T04:06:49.366Z,94985.65
2019-03-24T04:09:20.358Z,94997.23
2019-03-24T04:11:52.950Z,95012.55
2019-03-24T04:15:06.397Z,94999.54
2019-03-24T04:17:39.404Z,94979.48
2019-03-24T04:20:13.826Z,94942.22
2019-03-24T04:22:46.089Z,94966.97
2019-03-24T04:25:19.485Z,94953.61
2019-03-24T04:27:50.510Z,94950.80
2019-03-24T04:30:23.055Z,94938.79
2019-03-24T04:32:54.298Z,94944.14
2019-03-24T04:35:25.245Z,94919.43
2019-03-24T04:37:56.216Z,94899.26
2019-03-24T04:40:30.183Z,94887.98
2019-03-24T04:43:01.187Z,94871.06
2019-03-24T04:45:36.356Z,94865.70
2019-03-24T04:48:07.552Z,94851.36
2019-03-24T04:50:40.732Z,94844.20
2019-03-24T04:53:11.782Z,94806.81
2019-03-24T04:55:44.350Z,94776.97
2019-03-24T04:58:15.863Z,94806.12
2019-03-24T05:00:47.063Z,94831.70
2019-03-24T05:03:22.639Z,94849.56
2019-03-24T05:05:56.082Z,94875.98
2019-03-24T05:08:27.852Z,94855.98
2019-03-24T05:11:01.159Z,94848.44
2019-03-24T05:13:32.383Z,94841.78
2019-03-24T05:16:03.419Z,94841.78
2019-03-24T05:18:37.476Z,94856.44
2019-03-24T05:21:09.997Z,94888.17
2019-03-24T05:23:43.105Z,94958.47
2019-03-24T05:26:15.365Z,94958.47
2019-03-24T05:28:54.018Z,94975.74
2019-03-24T05:31:30.901Z,94887.13
2019-03-24T05:34:12.202Z,95029.31
2019-03-24T05:36:45.008Z,95041.02
2019-03-24T05:39:16.052Z,95106.23
2019-03-24T05:41:50.719Z,95083.92
2019-03-24T05:44:31.666Z,95124.31
2019-03-24T05:47:08.720Z,95220.98
2019-03-24T05:49:39.785Z,95634.80
2019-03-24T05:52:10.924Z,96081.00
2019-03-24T05:54:43.925Z,96441.45
2019-03-24T05:57:14.993Z,96640.14
2019-03-24T05:59:47.479Z,96836.33
2019-03-24T06:02:34.386Z,97145.97
2019-03-24T06:05:06.017Z,97459.80
2019-03-24T06:07:39.392Z,97710.81
2019-03-24T06:10:10.825Z,97775.39
2019-03-24T06:12:42.021Z,97902.67
2019-03-24T06:15:14.088Z,98070.66
2019-03-24T06:17:48.220Z,98492.66
2019-03-24T06:20:21.722Z,98920.38
2019-03-24T06:22:53.367Z,98901.00
2019-03-24T06:25:24.615Z,98728.33
2019-03-24T06:27:56.976Z,98882.00
2019-03-24T06:30:33.627Z,98940.53
2019-03-24T06:33:03.881Z,98672.53
2019-03-24T06:35:36.894Z,98572.66
2019-03-24T06:38:10.326Z,98749.98
2019-03-24T06:40:48.688Z,98794.95
2019-03-24T06:43:26.831Z,99125.88
2019-03-24T06:46:01.971Z,99262.96
2019-03-24T06:48:32.234Z,99320.63
2019-03-24T06:51:04.991Z,99094.05
2019-03-24T06:53:43.606Z,99244.76
2019-03-24T06:56:14.805Z,99432.28
2019-03-24T06:58:49.242Z,99575.33
2019-03-24T07:01:27.909Z,99666.56
2019-03-24T07:04:00.448Z,99498.85
2019-03-24T07:06:34.826Z,99338.16
2019-03-24T07:09:08.119Z,98613.44
2019-03-24T07:11:41.162Z,98381.07
2019-03-24T07:14:15.139Z,98506.78
2019-03-24T07:16:51.747Z,99039.56
2019-03-24T07:19:25.228Z,99327.30
2019-03-24T07:21:56.963Z,99200.67
2019-03-24T07:24:27.993Z,99119.68
2019-03-24T07:26:59.146Z,99102.66
2019-03-24T07:29:30.051Z,99320.28
2019-03-24T07:32:01.158Z,99981.70
2019-03-24T07:34:32.455Z,100149.99
2019-03-24T07:37:05.744Z,100483.13
2019-03-24T07:39:40.599Z,100626.63
2019-03-24T07:42:11.621Z,100524.96
2019-03-24T07:44:42.675Z,100757.81
2019-03-24T07:47:16.749Z,101086.85
2019-03-24T07:49:47.664Z,101307.35
2019-03-24T07:52:19.238Z,100997.86
2019-03-24T07:54:53.092Z,100750.89
2019-03-24T07:57:29.406Z,100786.27
2019-03-24T08:00:03.873Z,101125.62
2019-03-24T08:02:35.024Z,100685.14
2019-03-24T08:05:08.169Z,100705.42
2019-03-24T08:07:39.394Z,100576.13
2019-03-24T08:10:17.296Z,100216.59
2019-03-24T08:12:51.633Z,99571.44
2019-03-24T08:15:24.079Z,99204.98
2019-03-24T08:17:57.215Z,99202.16
2019-03-24T08:20:32.474Z,99458.67
2019-03-24T08:23:04.506Z,99889.42
2019-03-24T08:25:39.663Z,100284.20
2019-03-24T08:28:12.128Z,100677.05
2019-03-24T08:31:24.419Z,101115.36
2019-03-24T08:34:00.504Z,100761.41
2019-03-24T08:36:33.248Z,100622.61
2019-03-24T08:39:05.686Z,99952.77
2019-03-24T08:41:45.585Z,99978.48
2019-03-24T08:44:30.410Z,100016.23
2019-03-24T08:47:04.022Z,100083.83
2019-03-24T08:49:37.150Z,100221.73
2019-03-24T08:52:12.501Z,100418.66
2019-03-24T08:54:46.598Z,100671.61
2019-03-24T08:57:22.589Z,100877.37
2019-03-24T08:59:55.685Z,100564.05
2019-03-24T09:02:36.402Z,100465.45
2019-03-24T09:05:11.436Z,100261.03
2019-03-24T09:07:42.681Z,100178.36
2019-03-24T09:10:16.267Z,100067.58
2019-03-24T09:12:49.485Z,99768.73
2019-03-24T09:15:24.034Z,99546.06
2019-03-24T09:17:55.170Z,99267.95
2019-03-24T09:20:41.617Z,99151.23
2019-03-24T09:23:16.085Z,99068.30
2019-03-24T09:25:47.112Z,99135.88
2019-03-24T09:28:24.067Z,99400.38
2019-03-24T09:30:57.101Z,99566.51
2019-03-24T09:33:30.836Z,100084.30
2019-03-24T09:36:04.447Z,100366.63
2019-03-24T09:38:36.443Z,100328.30
2019-03-24T09:41:10.677Z,100572.37
2019-03-24T09:43:46.318Z,100977.98
2019-03-24T09:46:17.477Z,100787.77
2019-03-24T09:49:02.748Z,100593.04
2019-03-24T09:51:26.426Z,100594.58
2019-03-24T09:53:57.649Z,100532.16
2019-03-24T09:56:30.779Z,100987.73
2019-03-24T09:59:07.554Z,101354.72
2019-03-24T10:01:38.690Z,101046.46
2019-03-24T10:04:09.770Z,101634.38
2019-03-24T10:06:44.189Z,101989.64
2019-03-24T10:09:19.925Z,101549.95
2019-03-24T10:11:57.631Z,101214.27
2019-03-24T10:14:31.425Z,100598.95
2019-03-24T10:17:02.680Z,100771.09
2019-03-24T10:19:35.022Z,101157.70
2019-03-24T10:22:11.726Z,101543.30
2019-03-24T10:24:47.636Z,101844.95
2019-03-24T10:27:18.668Z,101811.16
2019-03-24T10:29:51.610Z,101821.35
2019-03-24T10:32:24.894Z,101924.09
2019-03-24T10:34:58.875Z,102092.41
2019-03-24T10:37:31.601Z,102160.28
2019-03-24T10:40:02.556Z,101758.47
2019-03-24T10:42:36.754Z,101399.57
2019-03-24T10:48:33.410Z,101716.03
2019-03-24T10:51:32.624Z,101807.48
2019-03-24T10:54:02.590Z,101963.66
2019-03-24T10:57:07.362Z,102362.66
2019-03-24T11:00:52.234Z,102714.69
2019-03-24T11:02:56.293Z,102357.52
2019-03-24T11:06:02.568Z,101276.70
2019-03-24T11:08:48.836Z,101404.68
2019-03-24T11:11:21.811Z,101306.31
2019-03-24T11:34:00.787Z,100828.39
2019-03-24T11:36:35.758Z,101072.87
2019-03-24T11:39:15.559Z,100893.36
2019-03-24T11:41:53.218Z,100952.20
2019-03-24T11:47:26.443Z,101100.58
2019-03-24T11:50:03.019Z,101352.61
2019-03-24T11:52:39.468Z,100904.31
2019-03-24T11:55:12.399Z,101070.03
2019-03-24T11:57:51.547Z,101707.83
2019-03-24T12:01:19.905Z,101847.41
2019-03-24T12:04:29.485Z,101968.36
2019-03-24T12:16:14.942Z,101049.91
2019-03-24T12:18:55.172Z,100780.63
2019-03-24T12:21:34.614Z,100444.56
2019-03-24T12:24:08.961Z,99898.34
2019-03-24T12:26:47.589Z,99346.65
2019-03-24T12:52:38.212Z,100638.65
2019-03-24T12:55:28.401Z,100472.06
2019-03-24T13:12:44.147Z,100210.27
2019-03-24T13:15:16.340Z,100304.73
2019-03-24T13:17:47.456Z,100474.80
2019-03-24T13:20:36.456Z,100287.11
2019-03-24T13:23:02.814Z,100569.26
2019-03-24T13:25:38.517Z,100783.67
2019-03-24T13:28:32.063Z,100863.92
2019-03-24T13:31:05.679Z,100941.98
2019-03-24T13:33:38.503Z,101083.10
2019-03-24T13:36:15.155Z,101370.22
2019-03-24T13:38:46.261Z,101405.16
2019-03-24T13:41:17.545Z,101534.62
2019-03-24T13:43:49.094Z,101436.27
2019-03-24T13:46:23.471Z,101392.33
2019-03-24T13:49:05.273Z,101381.84
2019-03-24T13:54:25.051Z,101383.29
2019-03-24T13:57:14.694Z,101638.09
2019-03-24T13:59:46.133Z,101725.16
2019-03-24T14:02:20.367Z,101936.03
2019-03-24T15:09:45.820Z,99037.78
2019-03-24T15:12:29.600Z,99165.17
2019-03-24T15:15:12.260Z,99274.27
2019-03-24T15:17:54.909Z,99117.90
2019-03-24T15:20:39.611Z,98891.15
2019-03-24T15:26:17.275Z,98609.90
2019-03-24T15:29:33.819Z,98535.66
2019-03-24T15:32:18.386Z,98367.02
2019-03-24T15:35:12.276Z,98241.70
2019-03-24T15:38:08.481Z,98094.23
2019-03-24T15:40:49.470Z,97963.17
2019-03-24T15:43:28.897Z,97871.98
2019-03-24T15:46:06.456Z,97806.70
2019-03-24T15:48:39.104Z,97742.42
2019-03-24T15:51:17.704Z,97710.95
2019-03-24T15:54:29.308Z,97706.98
2019-03-24T15:57:02.926Z,97611.62
2019-03-24T15:59:36.621Z,97554.69
2019-03-24T16:02:07.736Z,97520.29
2019-03-24T16:04:38.832Z,97471.02
2019-03-24T16:07:09.921Z,97423.02
2019-03-24T16:09:47.099Z,97380.22
2019-03-24T16:12:29.246Z,97386.50
2019-03-24T16:15:02.716Z,97365.52
2019-03-24T16:17:37.436Z,97310.31
2019-03-24T16:20:16.709Z,97305.34
2019-03-24T16:22:55.223Z,97301.55
2019-03-24T16:25:30.507Z,97282.23
2019-03-24T16:28:05.101Z,97273.81
2019-03-24T16:30:39.523Z,97234.99
2019-03-24T16:33:19.691Z,97191.24
2019-03-24T16:36:04.134Z,97158.23
2019-03-24T16:38:49.181Z,97141.25
2019-03-24T16:41:35.292Z,96966.45
2019-03-24T16:44:18.344Z,97037.63
2019-03-24T16:46:52.166Z,97001.98
2019-03-24T16:49:27.987Z,96937.54
2019-03-24T16:52:03.982Z,96932.43
2019-03-24T16:54:35.204Z,96891.20
